sensor_id;sensor_type;location;lat;lon;timestamp;P1;durP1;ratioP1;P2;durP2;ratioP2
47960;SDS011;33721;48.852;9.936;2023-12-20T00:02:22;4.90;;;2.17;;
47960;SDS011;33721;48.852;9.936;2023-12-20T00:04:48;5.43;;;2.45;;
47960;SDS011;33721;48.852;9.936;2023-12-20T00:07:13;4.38;;;2.03;;
47960;SDS011;33721;48.852;9.936;2023-12-20T00:09:40;4.85;;;2.35;;
47960;SDS011;33721;48.852;9.936;2023-12-20T00:12:06;4.10;;;1.73;;
47960;SDS011;33721;48.852;9.936;2023-12-20T00:14:32;4.43;;;1.90;;
47960;SDS011;33721;48.852;9.936;2023-12-20T00:16:57;4.65;;;2.20;;
47960;SDS011;33721;48.852;9.936;2023-12-20T00:19:23;6.03;;;2.28;;
47960;SDS011;33721;48.852;9.936;2023-12-20T00:21:49;3.95;;;1.98;;
47960;SDS011;33721;48.852;9.936;2023-12-20T00:24:14;4.00;;;2.03;;
47960;SDS011;33721;48.852;9.936;2023-12-20T00:26:40;4.22;;;1.88;;
47960;SDS011;33721;48.852;9.936;2023-12-20T00:29:05;3.63;;;1.98;;
47960;SDS011;33721;48.852;9.936;2023-12-20T00:31:31;4.20;;;2.22;;
47960;SDS011;33721;48.852;9.936;2023-12-20T00:33:57;4.72;;;2.10;;
47960;SDS011;33721;48.852;9.936;2023-12-20T00:36:22;4.50;;;1.92;;
47960;SDS011;33721;48.852;9.936;2023-12-20T00:38:48;5.78;;;2.17;;
47960;SDS011;33721;48.852;9.936;2023-12-20T00:41:14;5.05;;;1.90;;
47960;SDS011;33721;48.852;9.936;2023-12-20T00:43:40;3.55;;;2.10;;
47960;SDS011;33721;48.852;9.936;2023-12-20T00:46:06;3.35;;;1.88;;
47960;SDS011;33721;48.852;9.936;2023-12-20T00:48:32;4.88;;;2.38;;
47960;SDS011;33721;48.852;9.936;2023-12-20T00:50:58;5.85;;;1.80;;
47960;SDS011;33721;48.852;9.936;2023-12-20T00:53:24;4.60;;;2.00;;
47960;SDS011;33721;48.852;9.936;2023-12-20T00:55:49;5.82;;;2.45;;
47960;SDS011;33721;48.852;9.936;2023-12-20T00:58:15;5.03;;;2.33;;
47960;SDS011;33721;48.852;9.936;2023-12-20T01:00:41;6.65;;;2.55;;
47960;SDS011;33721;48.852;9.936;2023-12-20T01:03:08;5.07;;;2.10;;
47960;SDS011;33721;48.852;9.936;2023-12-20T01:05:33;4.90;;;2.35;;
47960;SDS011;33721;48.852;9.936;2023-12-20T01:07:59;4.78;;;1.88;;
47960;SDS011;33721;48.852;9.936;2023-12-20T01:10:24;4.15;;;2.28;;
47960;SDS011;33721;48.852;9.936;2023-12-20T01:12:53;4.57;;;2.20;;
47960;SDS011;33721;48.852;9.936;2023-12-20T01:15:18;3.55;;;2.03;;
47960;SDS011;33721;48.852;9.936;2023-12-20T01:17:44;3.83;;;2.03;;
47960;SDS011;33721;48.852;9.936;2023-12-20T01:20:10;4.13;;;2.00;;
47960;SDS011;33721;48.852;9.936;2023-12-20T01:22:36;4.30;;;2.15;;
47960;SDS011;33721;48.852;9.936;2023-12-20T01:25:01;3.70;;;2.03;;
47960;SDS011;33721;48.852;9.936;2023-12-20T01:27:27;5.13;;;2.58;;
47960;SDS011;33721;48.852;9.936;2023-12-20T01:29:53;4.13;;;2.20;;
47960;SDS011;33721;48.852;9.936;2023-12-20T01:32:19;3.60;;;2.03;;
47960;SDS011;33721;48.852;9.936;2023-12-20T01:34:45;4.72;;;2.22;;
47960;SDS011;33721;48.852;9.936;2023-12-20T01:37:10;4.55;;;2.03;;
47960;SDS011;33721;48.852;9.936;2023-12-20T01:39:36;4.60;;;2.20;;
47960;SDS011;33721;48.852;9.936;2023-12-20T01:42:01;4.35;;;1.90;;
47960;SDS011;33721;48.852;9.936;2023-12-20T01:44:27;4.50;;;2.13;;
47960;SDS011;33721;48.852;9.936;2023-12-20T01:46:53;4.68;;;2.00;;
47960;SDS011;33721;48.852;9.936;2023-12-20T01:49:19;3.40;;;1.83;;
47960;SDS011;33721;48.852;9.936;2023-12-20T01:51:45;4.03;;;2.25;;
47960;SDS011;33721;48.852;9.936;2023-12-20T01:54:11;4.40;;;2.05;;
47960;SDS011;33721;48.852;9.936;2023-12-20T01:56:38;4.55;;;1.88;;
47960;SDS011;33721;48.852;9.936;2023-12-20T01:59:05;4.20;;;1.98;;
47960;SDS011;33721;48.852;9.936;2023-12-20T02:01:32;4.78;;;2.22;;
47960;SDS011;33721;48.852;9.936;2023-12-20T02:03:58;5.50;;;1.80;;
47960;SDS011;33721;48.852;9.936;2023-12-20T02:06:24;5.65;;;2.50;;
47960;SDS011;33721;48.852;9.936;2023-12-20T02:08:55;6.55;;;2.25;;
47960;SDS011;33721;48.852;9.936;2023-12-20T02:11:21;4.32;;;1.88;;
47960;SDS011;33721;48.852;9.936;2023-12-20T02:13:47;5.82;;;1.90;;
47960;SDS011;33721;48.852;9.936;2023-12-20T02:16:13;6.15;;;1.80;;
47960;SDS011;33721;48.852;9.936;2023-12-20T02:18:39;4.18;;;1.50;;
47960;SDS011;33721;48.852;9.936;2023-12-20T02:21:05;3.78;;;1.58;;
47960;SDS011;33721;48.852;9.936;2023-12-20T02:23:31;3.90;;;1.50;;
47960;SDS011;33721;48.852;9.936;2023-12-20T02:25:56;3.60;;;1.48;;
47960;SDS011;33721;48.852;9.936;2023-12-20T02:28:22;4.40;;;1.67;;
47960;SDS011;33721;48.852;9.936;2023-12-20T02:30:48;5.30;;;1.90;;
47960;SDS011;33721;48.852;9.936;2023-12-20T02:33:14;4.47;;;1.75;;
47960;SDS011;33721;48.852;9.936;2023-12-20T02:35:40;3.28;;;1.40;;
47960;SDS011;33721;48.852;9.936;2023-12-20T02:38:06;4.75;;;1.80;;
47960;SDS011;33721;48.852;9.936;2023-12-20T02:40:32;4.05;;;1.77;;
47960;SDS011;33721;48.852;9.936;2023-12-20T02:42:57;3.03;;;1.75;;
47960;SDS011;33721;48.852;9.936;2023-12-20T02:45:23;3.95;;;1.80;;
47960;SDS011;33721;48.852;9.936;2023-12-20T02:47:49;3.50;;;1.80;;
47960;SDS011;33721;48.852;9.936;2023-12-20T02:50:14;4.43;;;2.30;;
47960;SDS011;33721;48.852;9.936;2023-12-20T02:52:40;6.10;;;2.00;;
47960;SDS011;33721;48.852;9.936;2023-12-20T02:55:06;5.25;;;2.38;;
47960;SDS011;33721;48.852;9.936;2023-12-20T02:57:31;5.47;;;2.58;;
47960;SDS011;33721;48.852;9.936;2023-12-20T02:59:58;5.68;;;2.55;;
47960;SDS011;33721;48.852;9.936;2023-12-20T03:02:24;6.55;;;2.65;;
47960;SDS011;33721;48.852;9.936;2023-12-20T03:04:49;4.90;;;2.53;;
47960;SDS011;33721;48.852;9.936;2023-12-20T03:07:15;10.20;;;2.90;;
47960;SDS011;33721;48.852;9.936;2023-12-20T03:09:40;6.05;;;2.80;;
47960;SDS011;33721;48.852;9.936;2023-12-20T03:12:06;5.18;;;2.63;;
47960;SDS011;33721;48.852;9.936;2023-12-20T03:14:32;6.28;;;3.17;;
47960;SDS011;33721;48.852;9.936;2023-12-20T03:16:57;4.57;;;2.35;;
47960;SDS011;33721;48.852;9.936;2023-12-20T03:19:23;5.75;;;2.75;;
47960;SDS011;33721;48.852;9.936;2023-12-20T03:21:48;5.25;;;2.58;;
47960;SDS011;33721;48.852;9.936;2023-12-20T03:24:14;5.60;;;2.90;;
47960;SDS011;33721;48.852;9.936;2023-12-20T03:26:40;5.28;;;2.70;;
47960;SDS011;33721;48.852;9.936;2023-12-20T03:29:05;4.75;;;2.63;;
47960;SDS011;33721;48.852;9.936;2023-12-20T03:31:31;8.45;;;2.83;;
47960;SDS011;33721;48.852;9.936;2023-12-20T03:33:57;4.72;;;2.00;;
47960;SDS011;33721;48.852;9.936;2023-12-20T03:36:22;4.78;;;1.80;;
47960;SDS011;33721;48.852;9.936;2023-12-20T03:38:48;2.88;;;1.35;;
47960;SDS011;33721;48.852;9.936;2023-12-20T03:41:13;3.13;;;1.45;;
47960;SDS011;33721;48.852;9.936;2023-12-20T03:43:39;3.88;;;1.65;;
47960;SDS011;33721;48.852;9.936;2023-12-20T03:46:05;2.53;;;1.27;;
47960;SDS011;33721;48.852;9.936;2023-12-20T03:48:32;2.63;;;1.30;;
47960;SDS011;33721;48.852;9.936;2023-12-20T03:50:58;3.13;;;1.23;;
47960;SDS011;33721;48.852;9.936;2023-12-20T03:53:23;1.20;;;0.60;;
47960;SDS011;33721;48.852;9.936;2023-12-20T03:55:49;1.30;;;0.88;;
47960;SDS011;33721;48.852;9.936;2023-12-20T03:58:14;2.17;;;0.80;;
47960;SDS011;33721;48.852;9.936;2023-12-20T04:00:41;2.00;;;0.70;;
47960;SDS011;33721;48.852;9.936;2023-12-20T04:03:07;3.13;;;1.13;;
47960;SDS011;33721;48.852;9.936;2023-12-20T04:05:33;2.72;;;1.33;;
47960;SDS011;33721;48.852;9.936;2023-12-20T04:07:59;3.15;;;1.00;;
47960;SDS011;33721;48.852;9.936;2023-12-20T04:10:26;1.95;;;0.85;;
47960;SDS011;33721;48.852;9.936;2023-12-20T04:12:52;2.72;;;1.20;;
47960;SDS011;33721;48.852;9.936;2023-12-20T04:15:18;1.60;;;0.90;;
47960;SDS011;33721;48.852;9.936;2023-12-20T04:17:44;2.60;;;1.10;;
47960;SDS011;33721;48.852;9.936;2023-12-20T04:20:09;2.03;;;1.05;;
47960;SDS011;33721;48.852;9.936;2023-12-20T04:22:35;1.55;;;0.90;;
47960;SDS011;33721;48.852;9.936;2023-12-20T04:25:01;1.63;;;0.80;;
47960;SDS011;33721;48.852;9.936;2023-12-20T04:27:27;2.03;;;0.80;;
47960;SDS011;33721;48.852;9.936;2023-12-20T04:29:53;0.55;;;0.32;;
47960;SDS011;33721;48.852;9.936;2023-12-20T04:32:18;1.15;;;0.68;;
47960;SDS011;33721;48.852;9.936;2023-12-20T04:34:44;3.15;;;0.77;;
47960;SDS011;33721;48.852;9.936;2023-12-20T04:37:09;1.13;;;0.70;;
47960;SDS011;33721;48.852;9.936;2023-12-20T04:39:35;0.77;;;0.45;;
47960;SDS011;33721;48.852;9.936;2023-12-20T04:42:01;1.25;;;0.50;;
47960;SDS011;33721;48.852;9.936;2023-12-20T04:44:26;1.25;;;0.60;;
47960;SDS011;33721;48.852;9.936;2023-12-20T04:46:52;1.45;;;0.55;;
47960;SDS011;33721;48.852;9.936;2023-12-20T04:49:18;0.82;;;0.43;;
47960;SDS011;33721;48.852;9.936;2023-12-20T04:51:43;1.33;;;0.60;;
47960;SDS011;33721;48.852;9.936;2023-12-20T04:54:09;0.82;;;0.50;;
47960;SDS011;33721;48.852;9.936;2023-12-20T04:56:35;1.85;;;0.52;;
47960;SDS011;33721;48.852;9.936;2023-12-20T04:59:01;1.48;;;0.60;;
47960;SDS011;33721;48.852;9.936;2023-12-20T05:01:27;2.33;;;0.93;;
47960;SDS011;33721;48.852;9.936;2023-12-20T05:03:53;1.08;;;0.60;;
47960;SDS011;33721;48.852;9.936;2023-12-20T05:06:18;1.83;;;0.73;;
47960;SDS011;33721;48.852;9.936;2023-12-20T05:08:44;1.17;;;0.50;;
47960;SDS011;33721;48.852;9.936;2023-12-20T05:11:09;1.42;;;0.45;;
47960;SDS011;33721;48.852;9.936;2023-12-20T05:13:35;1.30;;;0.60;;
47960;SDS011;33721;48.852;9.936;2023-12-20T05:16:00;1.17;;;0.60;;
47960;SDS011;33721;48.852;9.936;2023-12-20T05:18:26;1.25;;;0.63;;
47960;SDS011;33721;48.852;9.936;2023-12-20T05:20:52;1.40;;;0.70;;
47960;SDS011;33721;48.852;9.936;2023-12-20T05:23:18;2.00;;;0.70;;
47960;SDS011;33721;48.852;9.936;2023-12-20T05:25:45;1.60;;;0.90;;
47960;SDS011;33721;48.852;9.936;2023-12-20T05:28:10;2.50;;;0.85;;
47960;SDS011;33721;48.852;9.936;2023-12-20T05:30:36;2.72;;;0.95;;
47960;SDS011;33721;48.852;9.936;2023-12-20T05:33:02;0.80;;;0.52;;
47960;SDS011;33721;48.852;9.936;2023-12-20T05:35:27;1.50;;;0.80;;
47960;SDS011;33721;48.852;9.936;2023-12-20T05:37:53;2.75;;;1.10;;
47960;SDS011;33721;48.852;9.936;2023-12-20T05:40:18;1.35;;;0.88;;
47960;SDS011;33721;48.852;9.936;2023-12-20T05:42:44;1.63;;;0.88;;
47960;SDS011;33721;48.852;9.936;2023-12-20T05:45:10;1.70;;;0.88;;
47960;SDS011;33721;48.852;9.936;2023-12-20T05:47:36;2.13;;;1.10;;
47960;SDS011;33721;48.852;9.936;2023-12-20T05:50:01;3.60;;;1.20;;
47960;SDS011;33721;48.852;9.936;2023-12-20T05:52:27;3.33;;;1.25;;
47960;SDS011;33721;48.852;9.936;2023-12-20T05:54:53;2.63;;;1.38;;
47960;SDS011;33721;48.852;9.936;2023-12-20T05:57:18;3.28;;;1.60;;
47960;SDS011;33721;48.852;9.936;2023-12-20T05:59:44;2.67;;;1.35;;
47960;SDS011;33721;48.852;9.936;2023-12-20T06:02:09;3.67;;;1.60;;
47960;SDS011;33721;48.852;9.936;2023-12-20T06:04:35;2.72;;;1.52;;
47960;SDS011;33721;48.852;9.936;2023-12-20T06:07:01;2.65;;;1.55;;
47960;SDS011;33721;48.852;9.936;2023-12-20T06:09:27;3.38;;;1.70;;
47960;SDS011;33721;48.852;9.936;2023-12-20T06:11:53;2.85;;;1.65;;
47960;SDS011;33721;48.852;9.936;2023-12-20T06:14:18;3.40;;;1.63;;
47960;SDS011;33721;48.852;9.936;2023-12-20T06:16:44;3.35;;;1.60;;
47960;SDS011;33721;48.852;9.936;2023-12-20T06:19:11;2.20;;;1.42;;
47960;SDS011;33721;48.852;9.936;2023-12-20T06:21:36;3.67;;;1.85;;
47960;SDS011;33721;48.852;9.936;2023-12-20T06:24:02;2.78;;;1.58;;
47960;SDS011;33721;48.852;9.936;2023-12-20T06:26:28;2.65;;;1.40;;
47960;SDS011;33721;48.852;9.936;2023-12-20T06:28:53;3.67;;;1.70;;
47960;SDS011;33721;48.852;9.936;2023-12-20T06:31:20;3.05;;;1.38;;
47960;SDS011;33721;48.852;9.936;2023-12-20T06:33:46;2.97;;;1.58;;
47960;SDS011;33721;48.852;9.936;2023-12-20T06:36:12;2.50;;;1.35;;
47960;SDS011;33721;48.852;9.936;2023-12-20T06:38:38;5.20;;;2.08;;
47960;SDS011;33721;48.852;9.936;2023-12-20T06:41:04;3.58;;;1.70;;
47960;SDS011;33721;48.852;9.936;2023-12-20T06:43:30;4.65;;;2.15;;
47960;SDS011;33721;48.852;9.936;2023-12-20T06:45:56;4.97;;;2.20;;
47960;SDS011;33721;48.852;9.936;2023-12-20T06:48:21;3.90;;;1.98;;
47960;SDS011;33721;48.852;9.936;2023-12-20T06:50:47;3.53;;;1.75;;
47960;SDS011;33721;48.852;9.936;2023-12-20T06:53:13;3.03;;;1.60;;
47960;SDS011;33721;48.852;9.936;2023-12-20T06:55:38;3.97;;;1.90;;
47960;SDS011;33721;48.852;9.936;2023-12-20T06:58:04;3.17;;;1.55;;
47960;SDS011;33721;48.852;9.936;2023-12-20T07:00:30;4.13;;;1.92;;
47960;SDS011;33721;48.852;9.936;2023-12-20T07:02:55;3.25;;;1.73;;
47960;SDS011;33721;48.852;9.936;2023-12-20T07:05:21;2.50;;;1.60;;
47960;SDS011;33721;48.852;9.936;2023-12-20T07:07:47;3.83;;;1.90;;
47960;SDS011;33721;48.852;9.936;2023-12-20T07:10:13;3.80;;;1.67;;
47960;SDS011;33721;48.852;9.936;2023-12-20T07:12:39;2.97;;;1.58;;
47960;SDS011;33721;48.852;9.936;2023-12-20T07:15:04;2.63;;;1.40;;
47960;SDS011;33721;48.852;9.936;2023-12-20T07:17:33;2.50;;;1.50;;
47960;SDS011;33721;48.852;9.936;2023-12-20T07:19:59;2.88;;;1.60;;
47960;SDS011;33721;48.852;9.936;2023-12-20T07:22:29;3.92;;;1.77;;
47960;SDS011;33721;48.852;9.936;2023-12-20T07:24:56;2.90;;;1.63;;
47960;SDS011;33721;48.852;9.936;2023-12-20T07:27:22;3.80;;;1.77;;
47960;SDS011;33721;48.852;9.936;2023-12-20T07:29:48;2.50;;;1.70;;
47960;SDS011;33721;48.852;9.936;2023-12-20T07:32:14;3.80;;;1.95;;
47960;SDS011;33721;48.852;9.936;2023-12-20T07:34:39;3.65;;;2.45;;
47960;SDS011;33721;48.852;9.936;2023-12-20T07:37:05;4.85;;;2.70;;
47960;SDS011;33721;48.852;9.936;2023-12-20T07:39:30;4.50;;;2.20;;
47960;SDS011;33721;48.852;9.936;2023-12-20T07:41:56;4.45;;;2.55;;
47960;SDS011;33721;48.852;9.936;2023-12-20T07:44:22;5.18;;;2.80;;
47960;SDS011;33721;48.852;9.936;2023-12-20T07:46:47;6.15;;;3.08;;
47960;SDS011;33721;48.852;9.936;2023-12-20T07:49:13;7.22;;;3.58;;
47960;SDS011;33721;48.852;9.936;2023-12-20T07:51:39;9.52;;;4.30;;
47960;SDS011;33721;48.852;9.936;2023-12-20T07:54:05;8.80;;;4.22;;
47960;SDS011;33721;48.852;9.936;2023-12-20T07:56:30;9.43;;;4.90;;
47960;SDS011;33721;48.852;9.936;2023-12-20T07:58:56;11.07;;;4.57;;
47960;SDS011;33721;48.852;9.936;2023-12-20T08:01:22;11.27;;;5.60;;
47960;SDS011;33721;48.852;9.936;2023-12-20T08:03:48;12.13;;;6.00;;
47960;SDS011;33721;48.852;9.936;2023-12-20T08:06:14;13.02;;;6.32;;
47960;SDS011;33721;48.852;9.936;2023-12-20T08:08:42;13.98;;;6.45;;
47960;SDS011;33721;48.852;9.936;2023-12-20T08:11:08;13.05;;;6.75;;
47960;SDS011;33721;48.852;9.936;2023-12-20T08:13:33;14.65;;;7.22;;
47960;SDS011;33721;48.852;9.936;2023-12-20T08:15:59;11.82;;;6.05;;
47960;SDS011;33721;48.852;9.936;2023-12-20T08:18:25;13.73;;;6.07;;
47960;SDS011;33721;48.852;9.936;2023-12-20T08:20:50;14.63;;;6.65;;
47960;SDS011;33721;48.852;9.936;2023-12-20T08:23:18;11.30;;;5.75;;
47960;SDS011;33721;48.852;9.936;2023-12-20T08:25:46;9.82;;;5.25;;
47960;SDS011;33721;48.852;9.936;2023-12-20T08:28:12;11.38;;;5.18;;
47960;SDS011;33721;48.852;9.936;2023-12-20T08:30:37;11.77;;;5.25;;
47960;SDS011;33721;48.852;9.936;2023-12-20T08:33:03;9.07;;;5.07;;
47960;SDS011;33721;48.852;9.936;2023-12-20T08:35:29;8.90;;;4.70;;
47960;SDS011;33721;48.852;9.936;2023-12-20T08:37:55;8.65;;;4.50;;
47960;SDS011;33721;48.852;9.936;2023-12-20T08:40:21;8.25;;;4.13;;
47960;SDS011;33721;48.852;9.936;2023-12-20T08:42:46;7.32;;;3.67;;
47960;SDS011;33721;48.852;9.936;2023-12-20T08:45:12;9.90;;;4.28;;
47960;SDS011;33721;48.852;9.936;2023-12-20T08:47:38;8.98;;;4.90;;
47960;SDS011;33721;48.852;9.936;2023-12-20T08:50:03;8.82;;;4.53;;
47960;SDS011;33721;48.852;9.936;2023-12-20T08:52:29;8.98;;;4.55;;
47960;SDS011;33721;48.852;9.936;2023-12-20T08:54:55;10.05;;;4.85;;
47960;SDS011;33721;48.852;9.936;2023-12-20T08:57:21;9.73;;;5.00;;
47960;SDS011;33721;48.852;9.936;2023-12-20T08:59:48;10.18;;;4.90;;
47960;SDS011;33721;48.852;9.936;2023-12-20T09:02:14;10.27;;;5.20;;
47960;SDS011;33721;48.852;9.936;2023-12-20T09:04:41;12.15;;;5.28;;
47960;SDS011;33721;48.852;9.936;2023-12-20T09:07:06;12.25;;;5.57;;
47960;SDS011;33721;48.852;9.936;2023-12-20T09:09:32;12.02;;;5.97;;
47960;SDS011;33721;48.852;9.936;2023-12-20T09:11:58;11.57;;;5.68;;
47960;SDS011;33721;48.852;9.936;2023-12-20T09:14:24;11.52;;;5.65;;
47960;SDS011;33721;48.852;9.936;2023-12-20T09:16:50;11.35;;;5.57;;
47960;SDS011;33721;48.852;9.936;2023-12-20T09:19:16;11.23;;;4.75;;
47960;SDS011;33721;48.852;9.936;2023-12-20T09:21:42;11.60;;;5.28;;
47960;SDS011;33721;48.852;9.936;2023-12-20T09:24:08;9.85;;;5.20;;
47960;SDS011;33721;48.852;9.936;2023-12-20T09:26:34;12.93;;;5.38;;
47960;SDS011;33721;48.852;9.936;2023-12-20T09:29:00;9.65;;;5.22;;
47960;SDS011;33721;48.852;9.936;2023-12-20T09:31:25;11.38;;;5.57;;
47960;SDS011;33721;48.852;9.936;2023-12-20T09:33:51;9.75;;;5.32;;
47960;SDS011;33721;48.852;9.936;2023-12-20T09:36:17;9.93;;;5.20;;
47960;SDS011;33721;48.852;9.936;2023-12-20T09:38:43;9.50;;;4.63;;
47960;SDS011;33721;48.852;9.936;2023-12-20T09:41:08;12.18;;;5.10;;
47960;SDS011;33721;48.852;9.936;2023-12-20T09:43:35;11.52;;;5.00;;
47960;SDS011;33721;48.852;9.936;2023-12-20T09:46:02;8.35;;;4.35;;
47960;SDS011;33721;48.852;9.936;2023-12-20T09:48:32;9.95;;;4.88;;
47960;SDS011;33721;48.852;9.936;2023-12-20T09:50:58;10.00;;;4.88;;
47960;SDS011;33721;48.852;9.936;2023-12-20T09:53:24;8.55;;;4.35;;
47960;SDS011;33721;48.852;9.936;2023-12-20T09:55:54;6.97;;;3.78;;
47960;SDS011;33721;48.852;9.936;2023-12-20T09:58:25;9.45;;;4.50;;
47960;SDS011;33721;48.852;9.936;2023-12-20T10:00:51;10.95;;;4.95;;
47960;SDS011;33721;48.852;9.936;2023-12-20T10:03:18;9.20;;;5.10;;
47960;SDS011;33721;48.852;9.936;2023-12-20T10:05:49;12.35;;;4.43;;
47960;SDS011;33721;48.852;9.936;2023-12-20T10:08:19;11.10;;;4.90;;
47960;SDS011;33721;48.852;9.936;2023-12-20T10:10:47;18.35;;;5.10;;
47960;SDS011;33721;48.852;9.936;2023-12-20T10:13:12;11.07;;;5.05;;
47960;SDS011;33721;48.852;9.936;2023-12-20T10:15:40;9.48;;;4.18;;
47960;SDS011;33721;48.852;9.936;2023-12-20T10:18:06;9.60;;;3.97;;
47960;SDS011;33721;48.852;9.936;2023-12-20T10:20:32;8.43;;;4.22;;
47960;SDS011;33721;48.852;9.936;2023-12-20T10:22:58;9.10;;;4.20;;
47960;SDS011;33721;48.852;9.936;2023-12-20T10:25:25;12.90;;;4.28;;
47960;SDS011;33721;48.852;9.936;2023-12-20T10:28:08;9.27;;;3.75;;
47960;SDS011;33721;48.852;9.936;2023-12-20T10:30:38;8.70;;;3.88;;
47960;SDS011;33721;48.852;9.936;2023-12-20T10:33:05;10.30;;;4.15;;
47960;SDS011;33721;48.852;9.936;2023-12-20T10:35:32;8.40;;;3.72;;
47960;SDS011;33721;48.852;9.936;2023-12-20T10:37:59;9.05;;;3.65;;
47960;SDS011;33721;48.852;9.936;2023-12-20T10:40:28;8.23;;;3.53;;
47960;SDS011;33721;48.852;9.936;2023-12-20T10:42:55;10.60;;;3.97;;
47960;SDS011;33721;48.852;9.936;2023-12-20T10:45:22;7.63;;;3.28;;
47960;SDS011;33721;48.852;9.936;2023-12-20T10:47:48;11.13;;;3.95;;
47960;SDS011;33721;48.852;9.936;2023-12-20T10:50:15;8.95;;;3.28;;
47960;SDS011;33721;48.852;9.936;2023-12-20T10:52:43;7.25;;;3.65;;
47960;SDS011;33721;48.852;9.936;2023-12-20T10:55:10;6.45;;;3.00;;
47960;SDS011;33721;48.852;9.936;2023-12-20T10:57:36;11.57;;;3.40;;
47960;SDS011;33721;48.852;9.936;2023-12-20T11:00:02;8.20;;;3.08;;
47960;SDS011;33721;48.852;9.936;2023-12-20T11:02:32;7.57;;;2.38;;
47960;SDS011;33721;48.852;9.936;2023-12-20T11:05:19;7.35;;;2.92;;
47960;SDS011;33721;48.852;9.936;2023-12-20T11:08:16;8.45;;;2.78;;
47960;SDS011;33721;48.852;9.936;2023-12-20T11:13:52;11.90;;;2.40;;
47960;SDS011;33721;48.852;9.936;2023-12-20T11:16:27;8.00;;;2.10;;
47960;SDS011;33721;48.852;9.936;2023-12-20T11:18:52;7.20;;;2.33;;
47960;SDS011;33721;48.852;9.936;2023-12-20T11:21:18;5.43;;;1.92;;
47960;SDS011;33721;48.852;9.936;2023-12-20T11:23:44;8.60;;;2.00;;
47960;SDS011;33721;48.852;9.936;2023-12-20T11:26:10;7.82;;;1.95;;
47960;SDS011;33721;48.852;9.936;2023-12-20T11:28:36;8.98;;;2.70;;
47960;SDS011;33721;48.852;9.936;2023-12-20T11:31:02;7.75;;;1.92;;
47960;SDS011;33721;48.852;9.936;2023-12-20T11:33:32;12.63;;;1.85;;
47960;SDS011;33721;48.852;9.936;2023-12-20T11:36:01;7.50;;;1.70;;
47960;SDS011;33721;48.852;9.936;2023-12-20T11:38:35;10.80;;;1.95;;
47960;SDS011;33721;48.852;9.936;2023-12-20T11:41:05;5.25;;;1.60;;
47960;SDS011;33721;48.852;9.936;2023-12-20T11:43:31;7.13;;;1.88;;
47960;SDS011;33721;48.852;9.936;2023-12-20T11:46:03;8.00;;;1.70;;
47960;SDS011;33721;48.852;9.936;2023-12-20T11:50:56;6.97;;;1.60;;
47960;SDS011;33721;48.852;9.936;2023-12-20T11:53:22;6.25;;;1.50;;
47960;SDS011;33721;48.852;9.936;2023-12-20T11:55:51;9.68;;;1.77;;
47960;SDS011;33721;48.852;9.936;2023-12-20T11:58:16;4.30;;;1.20;;
47960;SDS011;33721;48.852;9.936;2023-12-20T12:00:42;9.60;;;1.98;;
47960;SDS011;33721;48.852;9.936;2023-12-20T12:03:09;5.32;;;1.10;;
47960;SDS011;33721;48.852;9.936;2023-12-20T12:05:34;6.05;;;1.40;;
47960;SDS011;33721;48.852;9.936;2023-12-20T12:08:03;9.25;;;1.45;;
47960;SDS011;33721;48.852;9.936;2023-12-20T12:10:29;8.18;;;2.50;;
47960;SDS011;33721;48.852;9.936;2023-12-20T12:12:55;6.82;;;1.48;;
47960;SDS011;33721;48.852;9.936;2023-12-20T12:15:21;7.57;;;1.70;;
47960;SDS011;33721;48.852;9.936;2023-12-20T12:17:56;5.32;;;1.17;;
47960;SDS011;33721;48.852;9.936;2023-12-20T12:20:22;6.28;;;1.75;;
47960;SDS011;33721;48.852;9.936;2023-12-20T12:22:58;6.68;;;1.55;;
47960;SDS011;33721;48.852;9.936;2023-12-20T12:25:25;13.95;;;2.28;;
47960;SDS011;33721;48.852;9.936;2023-12-20T12:27:51;6.50;;;1.38;;
47960;SDS011;33721;48.852;9.936;2023-12-20T12:30:17;7.88;;;1.40;;
47960;SDS011;33721;48.852;9.936;2023-12-20T12:32:46;5.32;;;1.70;;
47960;SDS011;33721;48.852;9.936;2023-12-20T12:35:13;11.60;;;2.38;;
47960;SDS011;33721;48.852;9.936;2023-12-20T12:37:40;9.95;;;1.70;;
47960;SDS011;33721;48.852;9.936;2023-12-20T12:40:13;6.57;;;1.55;;
47960;SDS011;33721;48.852;9.936;2023-12-20T12:42:40;5.85;;;1.75;;
47960;SDS011;33721;48.852;9.936;2023-12-20T12:45:07;4.85;;;1.65;;
47960;SDS011;33721;48.852;9.936;2023-12-20T12:47:33;11.98;;;2.00;;
47960;SDS011;33721;48.852;9.936;2023-12-20T12:49:59;10.55;;;1.80;;
47960;SDS011;33721;48.852;9.936;2023-12-20T12:52:25;4.53;;;1.63;;
47960;SDS011;33721;48.852;9.936;2023-12-20T12:54:52;8.57;;;1.98;;
47960;SDS011;33721;48.852;9.936;2023-12-20T12:57:18;9.02;;;1.98;;
47960;SDS011;33721;48.852;9.936;2023-12-20T12:59:45;11.77;;;2.00;;
47960;SDS011;33721;48.852;9.936;2023-12-20T13:02:14;6.65;;;1.83;;
47960;SDS011;33721;48.852;9.936;2023-12-20T13:04:40;10.52;;;2.47;;
47960;SDS011;33721;48.852;9.936;2023-12-20T13:07:07;7.15;;;2.15;;
47960;SDS011;33721;48.852;9.936;2023-12-20T13:09:35;8.45;;;2.20;;
47960;SDS011;33721;48.852;9.936;2023-12-20T13:12:01;9.07;;;1.92;;
47960;SDS011;33721;48.852;9.936;2023-12-20T13:14:28;7.25;;;2.00;;
47960;SDS011;33721;48.852;9.936;2023-12-20T13:16:55;6.78;;;1.65;;
47960;SDS011;33721;48.852;9.936;2023-12-20T13:19:21;9.98;;;2.22;;
47960;SDS011;33721;48.852;9.936;2023-12-20T13:21:47;5.07;;;2.05;;
47960;SDS011;33721;48.852;9.936;2023-12-20T13:24:13;10.68;;;2.15;;
47960;SDS011;33721;48.852;9.936;2023-12-20T13:26:39;11.70;;;1.98;;
47960;SDS011;33721;48.852;9.936;2023-12-20T13:29:05;6.93;;;1.73;;
47960;SDS011;33721;48.852;9.936;2023-12-20T13:31:30;8.63;;;1.83;;
47960;SDS011;33721;48.852;9.936;2023-12-20T13:33:56;15.77;;;2.10;;
47960;SDS011;33721;48.852;9.936;2023-12-20T13:36:21;5.28;;;1.80;;
47960;SDS011;33721;48.852;9.936;2023-12-20T13:38:47;8.77;;;1.90;;
47960;SDS011;33721;48.852;9.936;2023-12-20T13:41:13;10.43;;;2.15;;
47960;SDS011;33721;48.852;9.936;2023-12-20T13:43:38;10.48;;;2.38;;
47960;SDS011;33721;48.852;9.936;2023-12-20T13:46:04;6.95;;;1.98;;
47960;SDS011;33721;48.852;9.936;2023-12-20T13:48:30;5.85;;;1.80;;
47960;SDS011;33721;48.852;9.936;2023-12-20T13:50:56;9.65;;;2.10;;
47960;SDS011;33721;48.852;9.936;2023-12-20T13:53:21;11.95;;;2.03;;
47960;SDS011;33721;48.852;9.936;2023-12-20T13:55:47;6.40;;;2.30;;
47960;SDS011;33721;48.852;9.936;2023-12-20T13:58:13;9.85;;;2.17;;
47960;SDS011;33721;48.852;9.936;2023-12-20T14:00:38;6.50;;;2.17;;
47960;SDS011;33721;48.852;9.936;2023-12-20T14:03:05;7.97;;;2.22;;
47960;SDS011;33721;48.852;9.936;2023-12-20T14:05:30;6.03;;;2.47;;
47960;SDS011;33721;48.852;9.936;2023-12-20T14:07:56;12.20;;;2.28;;
47960;SDS011;33721;48.852;9.936;2023-12-20T14:10:22;8.93;;;2.20;;
47960;SDS011;33721;48.852;9.936;2023-12-20T14:12:48;9.20;;;2.30;;
47960;SDS011;33721;48.852;9.936;2023-12-20T14:15:14;10.23;;;2.50;;
47960;SDS011;33721;48.852;9.936;2023-12-20T14:17:40;8.38;;;2.08;;
47960;SDS011;33721;48.852;9.936;2023-12-20T14:20:07;13.02;;;2.55;;
47960;SDS011;33721;48.852;9.936;2023-12-20T14:22:33;7.90;;;2.20;;
47960;SDS011;33721;48.852;9.936;2023-12-20T14:24:59;6.93;;;2.15;;
47960;SDS011;33721;48.852;9.936;2023-12-20T14:27:26;8.52;;;2.15;;
47960;SDS011;33721;48.852;9.936;2023-12-20T14:29:53;9.30;;;2.00;;
47960;SDS011;33721;48.852;9.936;2023-12-20T14:32:23;7.13;;;1.90;;
47960;SDS011;33721;48.852;9.936;2023-12-20T14:34:51;10.10;;;2.13;;
47960;SDS011;33721;48.852;9.936;2023-12-20T14:37:17;9.55;;;2.60;;
47960;SDS011;33721;48.852;9.936;2023-12-20T14:39:42;14.05;;;2.55;;
47960;SDS011;33721;48.852;9.936;2023-12-20T14:42:08;7.15;;;2.20;;
47960;SDS011;33721;48.852;9.936;2023-12-20T14:44:42;8.25;;;2.35;;
47960;SDS011;33721;48.852;9.936;2023-12-20T14:47:08;8.57;;;2.05;;